createdAt,value
2018-08-30T00:00:16.910Z,67.55
2018-08-30T00:01:16.804Z,68.03
2018-08-30T00:02:16.711Z,67.65
2018-08-30T00:03:16.619Z,67.55
2018-08-30T00:04:16.524Z,67.65
2018-08-30T00:05:16.418Z,67.65
2018-08-30T00:06:16.324Z,67.74
2018-08-30T00:07:16.219Z,68.13
2018-08-30T00:08:16.129Z,68.90
2018-08-30T00:09:16.040Z,68.99
2018-08-30T00:10:15.938Z,68.90
2018-08-30T00:11:15.846Z,68.70
2018-08-30T00:12:15.742Z,68.70
2018-08-30T00:13:15.654Z,69.38
2018-08-30T00:14:15.551Z,69.76
2018-08-30T00:15:15.460Z,69.67
2018-08-30T00:16:15.356Z,69.76
2018-08-30T00:17:15.262Z,70.24
2018-08-30T00:18:15.158Z,70.24
2018-08-30T00:19:15.071Z,70.88
2018-08-30T00:20:14.998Z,71.08
2018-08-30T00:21:14.875Z,71.46
2018-08-30T00:22:14.785Z,71.26
2018-08-30T00:23:14.681Z,71.94
2018-08-30T00:24:14.589Z,72.23
2018-08-30T00:25:14.490Z,71.65
2018-08-30T00:26:14.400Z,72.61
2018-08-30T00:27:14.291Z,72.80
2018-08-30T00:28:14.202Z,73.09
2018-08-30T00:29:14.102Z,72.90
2018-08-30T00:30:14.010Z,73.09
2018-08-30T00:31:13.920Z,73.47
2018-08-30T00:32:13.817Z,73.47
2018-08-30T00:33:13.724Z,74.15
2018-08-30T00:34:13.620Z,74.44
2018-08-30T00:35:13.530Z,74.63
2018-08-30T00:36:13.427Z,74.82
2018-08-30T00:37:13.332Z,75.31
2018-08-30T00:38:13.229Z,75.49
2018-08-30T00:39:13.140Z,75.31
2018-08-30T00:40:13.040Z,75.49
2018-08-30T00:41:13.005Z,75.59
2018-08-30T00:42:13.148Z,76.46
2018-08-30T00:43:12.752Z,76.26
2018-08-30T00:44:12.648Z,76.26
2018-08-30T00:45:12.560Z,76.46
2018-08-30T00:46:12.472Z,77.13
2018-08-30T00:47:12.367Z,77.71
2018-08-30T00:48:12.278Z,77.71
2018-08-30T00:49:12.170Z,77.81
2018-08-30T00:50:12.078Z,78.00
2018-08-30T00:51:11.979Z,78.58
2018-08-30T00:52:11.889Z,78.06
2018-08-30T00:53:11.784Z,78.58
2018-08-30T00:54:11.690Z,78.34
2018-08-30T00:55:11.587Z,78.15
2018-08-30T00:56:11.494Z,79.02
2018-08-30T00:57:11.396Z,78.67
2018-08-30T00:58:11.304Z,78.83
2018-08-30T00:59:11.199Z,79.60
2018-08-30T01:00:11.109Z,79.02
2018-08-30T01:01:11.013Z,79.30
2018-08-30T01:02:10.918Z,79.11
2018-08-30T01:03:10.813Z,79.88
2018-08-30T01:04:10.723Z,79.79
2018-08-30T01:05:10.626Z,79.79
2018-08-30T01:06:10.523Z,79.60
2018-08-30T01:07:10.427Z,80.07
2018-08-30T01:08:10.334Z,79.88
2018-08-30T01:09:10.240Z,80.75
2018-08-30T01:10:10.134Z,81.13
2018-08-30T01:11:10.047Z,81.42
2018-08-30T01:12:09.946Z,81.42
2018-08-30T01:13:09.856Z,81.52
2018-08-30T01:14:09.752Z,81.52
2018-08-30T01:15:09.656Z,81.99
2018-08-30T01:16:09.553Z,81.71
2018-08-30T01:17:09.466Z,82.09
2018-08-30T01:18:09.362Z,81.99
2018-08-30T01:19:09.274Z,82.09
2018-08-30T01:20:09.171Z,83.06
2018-08-30T01:21:09.075Z,82.67
2018-08-30T01:22:08.972Z,83.34
2018-08-30T01:23:08.886Z,82.76
2018-08-30T01:24:08.784Z,82.86
2018-08-30T01:25:08.687Z,83.44
2018-08-30T01:26:08.591Z,83.63
2018-08-30T01:27:08.492Z,82.86
2018-08-30T01:28:08.391Z,82.86
2018-08-30T01:29:08.301Z,83.44
2018-08-30T01:30:08.198Z,83.92
2018-08-30T01:31:08.108Z,84.01
2018-08-30T01:32:08.010Z,84.59
2018-08-30T01:33:07.914Z,84.98
2018-08-30T01:34:07.812Z,85.55
2018-08-30T01:35:07.720Z,84.69
2018-08-30T01:36:07.616Z,85.55
2018-08-30T01:37:07.521Z,85.55
2018-08-30T01:38:07.417Z,85.55
2018-08-30T01:39:07.327Z,85.84
2018-08-30T01:40:07.223Z,86.13
2018-08-30T01:41:07.136Z,87.09
2018-08-30T01:42:07.032Z,87.09
2018-08-30T01:43:06.945Z,87.53
2018-08-30T01:44:06.842Z,88.20
2018-08-30T01:45:06.745Z,88.20
2018-08-30T01:46:06.656Z,88.20
2018-08-30T01:47:06.554Z,88.59
2018-08-30T01:48:06.451Z,89.26
2018-08-30T01:49:06.359Z,88.97
2018-08-30T01:50:06.252Z,89.83
2018-08-30T01:51:06.164Z,90.51
2018-08-30T01:52:06.061Z,90.70
2018-08-30T01:53:05.976Z,90.60
2018-08-30T01:54:05.870Z,91.75
2018-08-30T01:55:05.776Z,92.05
2018-08-30T01:56:05.676Z,92.05
2018-08-30T01:57:05.587Z,92.33
2018-08-30T01:58:05.482Z,92.62
2018-08-30T01:59:05.392Z,93.29
2018-08-30T02:00:05.290Z,93.10
2018-08-30T02:01:05.190Z,93.96
2018-08-30T02:02:05.089Z,94.16
2018-08-30T02:03:05.004Z,94.06
2018-08-30T02:04:04.900Z,93.96
2018-08-30T02:05:04.805Z,94.40
2018-08-30T02:06:04.704Z,94.69
2018-08-30T02:07:04.847Z,95.26
2018-08-30T02:08:04.505Z,94.78
2018-08-30T02:09:04.419Z,95.36
2018-08-30T02:10:04.315Z,96.03
2018-08-30T02:11:04.209Z,96.61
2018-08-30T02:12:04.118Z,96.51
2018-08-30T02:13:04.019Z,96.51
2018-08-30T02:14:03.927Z,97.09
2018-08-30T02:15:03.826Z,97.19
2018-08-30T02:16:03.739Z,98.05
2018-08-30T02:17:03.629Z,97.76
2018-08-30T02:18:03.550Z,97.86
2018-08-30T02:19:03.439Z,98.43
2018-08-30T02:20:03.346Z,98.63
2018-08-30T02:21:03.242Z,98.53
2018-08-30T02:22:03.146Z,98.72
2018-08-30T02:23:03.045Z,98.63
2018-08-30T02:24:02.955Z,99.01
2018-08-30T02:25:02.856Z,99.44
2018-08-30T02:26:02.765Z,99.49
2018-08-30T02:27:02.657Z,99.30
2018-08-30T02:28:02.567Z,99.92
2018-08-30T02:29:02.468Z,99.82
2018-08-30T02:30:02.373Z,99.73
2018-08-30T02:31:02.272Z,99.78
2018-08-30T02:32:02.168Z,99.99
2018-08-30T02:33:02.074Z,99.99
2018-08-30T02:34:01.975Z,99.99
2018-08-30T02:35:01.887Z,99.99
2018-08-30T02:36:01.782Z,99.99
2018-08-30T02:37:01.991Z,99.99
2018-08-30T02:38:01.584Z,99.99
2018-08-30T02:39:01.491Z,99.99
2018-08-30T02:40:01.387Z,99.99
2018-08-30T02:41:01.301Z,99.99
2018-08-30T02:42:01.199Z,99.99
2018-08-30T02:43:01.105Z,99.99
2018-08-30T02:44:01.007Z,99.99
2018-08-30T02:45:00.904Z,99.99
2018-08-30T02:46:00.813Z,99.99
2018-08-30T02:47:00.956Z,99.99
2018-08-30T02:48:00.615Z,99.99
2018-08-30T02:49:00.540Z,99.99
2018-08-30T02:50:00.421Z,99.99
2018-08-30T02:51:00.321Z,99.99
2018-08-30T02:52:00.242Z,99.99
2018-08-30T02:53:00.122Z,99.99
2018-08-30T02:54:00.031Z,99.99
2018-08-30T02:54:59.926Z,99.99
2018-08-30T02:55:59.834Z,99.99
2018-08-30T02:56:59.738Z,99.99
2018-08-30T02:57:59.645Z,99.99
2018-08-30T02:58:59.539Z,99.99
2018-08-30T02:59:59.446Z,99.99
2018-08-30T03:00:59.347Z,99.99
2018-08-30T03:01:59.244Z,99.99
2018-08-30T03:02:59.156Z,99.99
2018-08-30T03:03:59.053Z,99.99
2018-08-30T03:04:58.969Z,99.99
2018-08-30T03:05:58.853Z,99.99
2018-08-30T03:06:58.766Z,99.99
2018-08-30T03:07:58.662Z,99.99
2018-08-30T03:08:58.567Z,99.99
2018-08-30T03:09:58.470Z,99.99
2018-08-30T03:10:58.377Z,99.99
2018-08-30T03:11:58.274Z,99.99
2018-08-30T03:12:58.187Z,99.99
2018-08-30T03:13:58.084Z,99.99
2018-08-30T03:14:57.977Z,99.99
2018-08-30T03:15:57.886Z,99.99
2018-08-30T03:16:57.792Z,99.99
2018-08-30T03:17:57.700Z,99.99
2018-08-30T03:18:57.598Z,99.99
2018-08-30T03:19:57.510Z,99.99
2018-08-30T03:20:57.404Z,99.99
2018-08-30T03:21:57.313Z,99.99
2018-08-30T03:22:57.208Z,99.99
2018-08-30T03:23:57.119Z,99.99
2018-08-30T03:24:57.016Z,99.99
2018-08-30T03:25:56.923Z,99.87
2018-08-30T03:26:56.825Z,99.77
2018-08-30T03:27:56.730Z,99.49
2018-08-30T03:28:56.627Z,99.99
2018-08-30T03:29:56.525Z,99.99
2018-08-30T03:30:56.445Z,99.99
2018-08-30T03:31:56.329Z,99.92
2018-08-30T03:32:56.239Z,99.99
2018-08-30T03:33:56.136Z,99.92
2018-08-30T03:34:56.044Z,99.92
2018-08-30T03:35:55.940Z,99.99
2018-08-30T03:36:55.851Z,99.99
2018-08-30T03:37:55.747Z,99.99
2018-08-30T03:38:55.657Z,99.99
2018-08-30T03:39:55.568Z,99.99
2018-08-30T03:40:55.463Z,99.99
2018-08-30T03:41:55.358Z,99.99
2018-08-30T03:42:55.268Z,99.99
2018-08-30T03:43:55.164Z,99.99
2018-08-30T03:44:55.074Z,99.99
2018-08-30T03:45:54.971Z,99.99
2018-08-30T03:46:54.937Z,99.99
2018-08-30T03:47:54.776Z,99.99
2018-08-30T03:48:54.688Z,99.99
2018-08-30T03:49:54.587Z,99.99
2018-08-30T03:50:54.491Z,99.99
2018-08-30T03:51:54.387Z,99.99
2018-08-30T03:52:54.300Z,99.99
2018-08-30T03:53:54.195Z,99.99
2018-08-30T03:54:54.102Z,99.99
2018-08-30T03:55:53.999Z,99.99
2018-08-30T03:56:53.910Z,99.99
2018-08-30T03:57:53.806Z,99.99
2018-08-30T03:58:53.714Z,99.99
2018-08-30T03:59:53.611Z,99.99
2018-08-30T04:00:53.522Z,99.99
2018-08-30T04:01:53.424Z,99.99
2018-08-30T04:02:53.326Z,99.99
2018-08-30T04:03:53.223Z,99.99
2018-08-30T04:04:53.133Z,99.99
2018-08-30T04:05:53.029Z,99.99
2018-08-30T04:06:52.955Z,99.99
2018-08-30T04:07:52.835Z,99.99
2018-08-30T04:08:52.745Z,99.99
2018-08-30T04:09:52.665Z,99.99
2018-08-30T04:10:52.551Z,99.99
2018-08-30T04:11:52.447Z,99.99
2018-08-30T04:12:52.356Z,99.99
2018-08-30T04:13:52.253Z,99.99
2018-08-30T04:14:52.161Z,99.99
2018-08-30T04:15:52.059Z,99.99
2018-08-30T04:16:51.968Z,99.99
2018-08-30T04:17:51.864Z,99.99
2018-08-30T04:18:51.775Z,99.99
2018-08-30T04:19:51.670Z,99.99
2018-08-30T04:20:51.580Z,99.99
2018-08-30T04:21:51.480Z,99.99
2018-08-30T04:22:51.385Z,99.99
2018-08-30T04:23:51.283Z,99.99
2018-08-30T04:24:51.192Z,99.99
2018-08-30T04:25:51.089Z,99.99
2018-08-30T04:26:51.010Z,99.99
2018-08-30T04:27:50.894Z,99.99
2018-08-30T04:28:50.803Z,99.99
2018-08-30T04:29:50.700Z,99.99
2018-08-30T04:30:50.608Z,99.99
2018-08-30T04:31:50.506Z,99.99
2018-08-30T04:32:50.415Z,99.99
2018-08-30T04:33:50.312Z,99.99
2018-08-30T04:34:50.221Z,99.99
2018-08-30T04:35:50.128Z,99.99
2018-08-30T04:36:50.019Z,99.99
2018-08-30T04:37:49.929Z,99.99
2018-08-30T04:38:49.836Z,99.99
2018-08-30T04:39:49.732Z,99.99
2018-08-30T04:40:49.628Z,99.99
2018-08-30T04:41:49.783Z,99.99
2018-08-30T04:42:49.482Z,99.99
2018-08-30T04:43:49.346Z,99.99
2018-08-30T04:44:49.248Z,99.99
2018-08-30T04:45:49.155Z,99.99
2018-08-30T04:46:49.043Z,99.99
2018-08-30T04:47:48.951Z,99.99
2018-08-30T04:48:48.864Z,99.99
2018-08-30T04:49:48.760Z,99.99
2018-08-30T04:50:48.669Z,99.99
2018-08-30T04:51:48.565Z,99.99
2018-08-30T04:52:48.492Z,99.99
2018-08-30T04:53:48.374Z,99.99
2018-08-30T04:54:48.282Z,99.99
2018-08-30T04:55:48.179Z,99.99
2018-08-30T04:56:48.083Z,99.99
2018-08-30T04:57:47.982Z,99.98
2018-08-30T04:58:47.896Z,99.54
2018-08-30T04:59:47.805Z,99.99
2018-08-30T05:00:47.696Z,99.99
2018-08-30T05:01:47.698Z,99.99
2018-08-30T05:02:47.503Z,99.99
2018-08-30T05:03:47.410Z,99.99
2018-08-30T05:04:47.326Z,96.99
2018-08-30T05:05:47.259Z,97.09
2018-08-30T05:06:47.125Z,99.49
2018-08-30T05:07:47.022Z,97.28
2018-08-30T05:08:46.936Z,94.68
2018-08-30T05:09:46.844Z,95.50
2018-08-30T05:10:46.743Z,93.68
2018-08-30T05:11:46.903Z,93.10
2018-08-30T05:12:46.546Z,87.43
2018-08-30T05:13:46.454Z,87.82
2018-08-30T05:14:46.355Z,86.95
2018-08-30T05:15:46.263Z,92.62
2018-08-30T05:16:46.168Z,94.06
2018-08-30T05:17:46.065Z,91.95
2018-08-30T05:18:45.976Z,90.03
2018-08-30T05:19:45.874Z,90.22
2018-08-30T05:20:45.785Z,85.32
2018-08-30T05:21:45.984Z,88.10
2018-08-30T05:22:45.589Z,87.10
2018-08-30T05:23:45.497Z,85.71
2018-08-30T05:24:45.399Z,83.16
2018-08-30T05:25:45.308Z,85.75
2018-08-30T05:26:45.204Z,87.77
2018-08-30T05:27:45.111Z,88.83
2018-08-30T05:28:45.017Z,90.17
2018-08-30T05:29:44.930Z,89.89
2018-08-30T05:30:44.827Z,91.13
2018-08-30T05:31:44.725Z,91.23
2018-08-30T05:32:44.630Z,93.92
2018-08-30T05:33:44.527Z,96.61
2018-08-30T05:34:44.433Z,96.32
2018-08-30T05:35:44.378Z,96.61
2018-08-30T05:36:44.245Z,95.36
2018-08-30T05:37:44.155Z,95.65
2018-08-30T05:38:44.046Z,96.22
2018-08-30T05:39:43.958Z,96.03
2018-08-30T05:40:43.867Z,94.69
2018-08-30T05:41:44.015Z,94.69
2018-08-30T05:42:43.665Z,93.15
2018-08-30T05:43:43.577Z,91.42
2018-08-30T05:44:43.506Z,89.79
2018-08-30T05:45:43.374Z,77.78
2018-08-30T05:46:43.296Z,73.66
2018-08-30T05:47:43.182Z,67.38
2018-08-30T05:48:43.089Z,68.82
2018-08-30T05:49:42.997Z,77.36
2018-08-30T05:50:42.896Z,75.92
2018-08-30T05:51:42.806Z,70.55
2018-08-30T05:52:42.705Z,72.66
2018-08-30T05:53:42.614Z,66.71
2018-08-30T05:54:42.505Z,72.66
2018-08-30T05:55:42.415Z,71.41
2018-08-30T05:56:42.351Z,71.41
2018-08-30T05:57:42.224Z,76.02
2018-08-30T05:58:42.136Z,76.50
2018-08-30T05:59:42.032Z,73.52
2018-08-30T06:00:41.938Z,76.12
2018-08-30T06:01:41.836Z,75.45
2018-08-30T06:02:41.758Z,74.68
2018-08-30T06:03:41.641Z,76.31
2018-08-30T06:04:41.548Z,78.42
2018-08-30T06:05:41.443Z,76.79
2018-08-30T06:06:41.354Z,77.65
2018-08-30T06:07:41.252Z,76.88
2018-08-30T06:08:41.165Z,77.65
2018-08-30T06:09:41.074Z,78.42
2018-08-30T06:10:40.966Z,79.99
2018-08-30T06:11:40.879Z,79.90
2018-08-30T06:12:40.777Z,80.47
2018-08-30T06:13:40.688Z,80.19
2018-08-30T06:14:40.581Z,79.80
2018-08-30T06:15:40.490Z,80.38
2018-08-30T06:16:40.386Z,79.61
2018-08-30T06:17:40.290Z,81.09
2018-08-30T06:18:40.197Z,80.42
2018-08-30T06:19:40.104Z,80.04
2018-08-30T06:20:40.008Z,80.42
2018-08-30T06:21:40.204Z,79.65
2018-08-30T06:22:39.815Z,79.07
2018-08-30T06:23:39.710Z,79.36
2018-08-30T06:24:39.621Z,78.30
2018-08-30T06:25:39.519Z,77.83
2018-08-30T06:26:39.428Z,77.53
2018-08-30T06:27:39.333Z,75.62
2018-08-30T06:28:39.234Z,74.69
2018-08-30T06:29:39.144Z,74.60
2018-08-30T06:30:39.043Z,74.21
2018-08-30T06:31:38.950Z,76.32
2018-08-30T06:32:38.857Z,75.94
2018-08-30T06:33:38.753Z,76.04
2018-08-30T06:34:38.691Z,76.42
2018-08-30T06:35:38.560Z,75.27
2018-08-30T06:36:38.467Z,75.56
2018-08-30T06:37:38.363Z,76.04
2018-08-30T06:38:38.349Z,75.37
2018-08-30T06:39:38.187Z,75.69
2018-08-30T06:40:38.083Z,74.73
2018-08-30T06:41:37.993Z,75.02
2018-08-30T06:42:37.885Z,75.49
2018-08-30T06:43:37.795Z,76.84
2018-08-30T06:44:37.708Z,78.58
2018-08-30T06:45:37.604Z,78.96
2018-08-30T06:46:37.512Z,79.86
2018-08-30T06:47:37.433Z,80.06
2018-08-30T06:48:37.379Z,79.77
2018-08-30T06:49:37.226Z,79.10
2018-08-30T06:50:37.130Z,79.86
2018-08-30T06:51:37.049Z,77.36
2018-08-30T06:52:36.940Z,76.31
2018-08-30T06:53:36.837Z,75.73
2018-08-30T06:54:36.743Z,73.90
2018-08-30T06:55:36.653Z,72.94
2018-08-30T06:56:36.554Z,72.90
2018-08-30T06:57:36.463Z,69.82
2018-08-30T06:58:36.411Z,67.90
2018-08-30T06:59:36.268Z,65.40
2018-08-30T07:00:36.180Z,60.69
2018-08-30T07:01:36.089Z,56.26
2018-08-30T07:02:35.985Z,54.43
2018-08-30T07:03:35.892Z,51.04
2018-08-30T07:04:35.805Z,41.05
2018-08-30T07:05:35.696Z,31.34
2018-08-30T07:06:35.610Z,35.18
2018-08-30T07:07:35.520Z,26.82
2018-08-30T07:08:35.414Z,24.11
2018-08-30T07:09:35.320Z,14.12
2018-08-30T07:10:35.217Z,0.38
2018-08-30T07:11:35.126Z,2.30
2018-08-30T07:12:35.038Z,0.00
2018-08-30T07:13:34.935Z,0.00
2018-08-30T07:14:34.896Z,0.00
2018-08-30T07:15:34.749Z,0.00
2018-08-30T07:16:34.650Z,0.00
2018-08-30T07:17:34.562Z,0.00
2018-08-30T07:18:34.470Z,0.00
2018-08-30T07:19:34.368Z,0.00
2018-08-30T07:20:34.276Z,0.00
2018-08-30T07:21:34.170Z,0.00
2018-08-30T07:22:34.084Z,0.00
2018-08-30T07:23:33.991Z,0.00
2018-08-30T07:24:33.882Z,0.00
2018-08-30T07:25:33.790Z,0.00
2018-08-30T07:26:33.691Z,0.00
2018-08-30T07:27:33.599Z,0.00
2018-08-30T07:28:33.518Z,0.00
2018-08-30T07:29:33.409Z,0.00
2018-08-30T07:30:33.315Z,0.00
2018-08-30T07:31:33.214Z,0.00
2018-08-30T07:32:33.124Z,0.00
2018-08-30T07:33:33.035Z,0.00
2018-08-30T07:34:32.951Z,0.00
2018-08-30T07:35:32.836Z,0.00
2018-08-30T07:36:32.730Z,0.00
2018-08-30T07:37:32.640Z,0.00
2018-08-30T07:38:32.566Z,0.00
2018-08-30T07:39:32.451Z,0.00
2018-08-30T07:40:32.357Z,0.00
2018-08-30T07:41:32.253Z,0.00
2018-08-30T07:42:32.160Z,0.00
2018-08-30T07:43:32.070Z,0.00
2018-08-30T07:44:32.129Z,0.00
2018-08-30T07:45:31.879Z,0.00
2018-08-30T07:46:31.772Z,0.00
2018-08-30T07:47:31.681Z,0.00
2018-08-30T07:48:31.594Z,0.00
2018-08-30T07:49:31.490Z,0.00
2018-08-30T07:50:31.403Z,0.00
2018-08-30T07:51:31.301Z,0.00
2018-08-30T07:52:31.203Z,0.00
2018-08-30T07:53:31.113Z,0.00
2018-08-30T07:54:31.036Z,0.00
2018-08-30T07:55:30.920Z,0.00
2018-08-30T07:56:30.817Z,0.00
2018-08-30T07:57:30.798Z,0.00
2018-08-30T07:58:30.634Z,0.00
2018-08-30T07:59:30.531Z,0.00
2018-08-30T08:00:30.445Z,0.00
2018-08-30T08:01:30.341Z,0.00
2018-08-30T08:02:30.251Z,0.00
2018-08-30T08:03:30.159Z,0.00
2018-08-30T08:04:30.054Z,0.00
2018-08-30T08:05:29.961Z,0.00
2018-08-30T08:06:29.855Z,0.00
2018-08-30T08:07:29.766Z,0.00
2018-08-30T08:08:29.680Z,0.00
2018-08-30T08:09:29.574Z,0.00
2018-08-30T08:10:29.488Z,0.00
2018-08-30T08:11:29.380Z,0.00
2018-08-30T08:12:29.312Z,0.00
2018-08-30T08:13:29.201Z,0.00
2018-08-30T08:14:29.096Z,0.00
2018-08-30T08:15:29.034Z,0.00
2018-08-30T08:16:28.899Z,0.00
2018-08-30T08:17:28.807Z,0.00
2018-08-30T08:18:28.720Z,0.00
2018-08-30T08:19:28.631Z,0.00
2018-08-30T08:20:28.521Z,0.00
2018-08-30T08:21:28.419Z,0.00
2018-08-30T08:22:28.329Z,0.00
2018-08-30T08:23:28.239Z,0.00
2018-08-30T08:24:28.141Z,0.00
2018-08-30T08:25:28.090Z,0.00
2018-08-30T08:26:27.939Z,0.00
2018-08-30T08:27:27.848Z,0.00
2018-08-30T08:28:27.764Z,0.00
2018-08-30T08:29:27.658Z,0.00
2018-08-30T08:30:27.571Z,0.00
2018-08-30T08:31:27.468Z,0.00
2018-08-30T08:32:27.374Z,0.00
2018-08-30T08:33:27.281Z,0.00
2018-08-30T08:34:27.181Z,0.00
2018-08-30T08:35:27.091Z,0.00
2018-08-30T08:36:26.985Z,0.00
2018-08-30T08:37:26.893Z,0.00
2018-08-30T08:38:26.799Z,0.00
2018-08-30T08:39:26.696Z,0.00
2018-08-30T08:40:26.610Z,0.00
2018-08-30T08:41:26.507Z,0.00
2018-08-30T08:42:26.413Z,0.00
2018-08-30T08:43:26.323Z,0.00
2018-08-30T08:44:26.224Z,0.00
2018-08-30T08:45:26.132Z,0.00
2018-08-30T08:46:26.027Z,0.00
2018-08-30T08:47:25.938Z,0.00
2018-08-30T08:48:25.841Z,0.00
2018-08-30T08:49:25.738Z,0.00
2018-08-30T08:50:25.652Z,0.00
2018-08-30T08:51:25.549Z,0.00
2018-08-30T08:52:25.466Z,0.00
2018-08-30T08:53:25.363Z,0.00
2018-08-30T08:54:25.282Z,0.00
2018-08-30T08:55:25.170Z,0.00
2018-08-30T08:56:25.071Z,0.00
2018-08-30T08:57:24.981Z,0.00
2018-08-30T08:58:24.872Z,0.00
2018-08-30T08:59:24.780Z,0.00
2018-08-30T09:00:24.694Z,0.00
2018-08-30T09:01:24.603Z,0.00
2018-08-30T09:02:24.501Z,0.00
2018-08-30T09:03:24.411Z,0.00
2018-08-30T09:04:24.320Z,0.00
2018-08-30T09:05:24.213Z,0.00
2018-08-30T09:06:24.124Z,0.00
2018-08-30T09:07:24.040Z,0.00
2018-08-30T09:08:23.925Z,0.00
2018-08-30T09:09:23.821Z,0.00
2018-08-30T09:10:23.733Z,0.00
2018-08-30T09:11:23.641Z,0.00
2018-08-30T09:12:23.542Z,0.00
2018-08-30T09:13:23.454Z,0.00
2018-08-30T09:14:23.406Z,0.00
2018-08-30T09:15:23.252Z,0.00
2018-08-30T09:16:23.165Z,0.00
2018-08-30T09:17:23.062Z,0.00
2018-08-30T09:18:23.031Z,0.00
2018-08-30T09:19:22.883Z,0.00
2018-08-30T09:20:22.776Z,0.00
2018-08-30T09:21:22.684Z,0.00
2018-08-30T09:22:22.599Z,0.00
2018-08-30T09:23:22.496Z,0.00
2018-08-30T09:24:22.399Z,0.00
2018-08-30T09:25:22.309Z,0.00
2018-08-30T09:26:22.203Z,0.00
2018-08-30T09:27:22.112Z,0.00
2018-08-30T09:28:22.026Z,0.00
2018-08-30T09:29:21.923Z,0.00
2018-08-30T09:30:21.829Z,0.00
2018-08-30T09:31:21.728Z,0.00
2018-08-30T09:32:21.641Z,0.00
2018-08-30T09:33:21.550Z,0.00
2018-08-30T09:34:21.444Z,0.00
2018-08-30T09:35:21.355Z,0.00
2018-08-30T09:36:21.257Z,0.00
2018-08-30T09:37:21.154Z,0.00
2018-08-30T09:38:21.068Z,0.00
2018-08-30T09:39:20.964Z,0.00
2018-08-30T09:40:20.871Z,0.00
2018-08-30T09:41:21.032Z,0.00
2018-08-30T09:42:20.677Z,0.00
2018-08-30T09:43:20.589Z,0.00
2018-08-30T09:44:20.500Z,0.00
2018-08-30T09:45:20.399Z,0.00
2018-08-30T09:46:20.299Z,0.00
2018-08-30T09:47:20.200Z,0.00
2018-08-30T09:48:20.110Z,0.00
2018-08-30T09:49:20.036Z,0.00
2018-08-30T09:50:19.923Z,0.00
2018-08-30T09:51:19.829Z,0.00
2018-08-30T09:52:19.718Z,0.00
2018-08-30T09:53:19.627Z,0.00
2018-08-30T09:54:19.542Z,0.00
2018-08-30T09:55:19.439Z,0.00
2018-08-30T09:56:19.343Z,0.00
2018-08-30T09:57:19.459Z,0.00
2018-08-30T09:58:19.148Z,0.00
2018-08-30T09:59:19.055Z,0.00
2018-08-30T10:00:18.956Z,0.00
2018-08-30T10:01:18.866Z,0.00
2018-08-30T10:02:18.761Z,0.00
2018-08-30T10:03:18.669Z,0.00
2018-08-30T10:04:18.584Z,0.00
2018-08-30T10:05:18.480Z,0.00
2018-08-30T10:06:18.399Z,0.00
2018-08-30T10:07:18.296Z,0.00
2018-08-30T10:08:18.188Z,0.00
2018-08-30T10:09:18.099Z,0.00
2018-08-30T10:10:17.994Z,0.00
2018-08-30T10:11:17.904Z,0.00
2018-08-30T10:12:17.817Z,0.00
2018-08-30T10:13:17.713Z,0.00
2018-08-30T10:14:17.626Z,0.00
2018-08-30T10:15:17.523Z,0.00
2018-08-30T10:16:17.430Z,0.00
2018-08-30T10:17:17.337Z,0.00
2018-08-30T10:18:17.235Z,0.00
2018-08-30T10:19:17.145Z,0.00
2018-08-30T10:20:17.038Z,0.00
2018-08-30T10:21:16.946Z,0.00
2018-08-30T10:22:16.857Z,0.00
2018-08-30T10:23:16.753Z,0.00
2018-08-30T10:24:16.667Z,0.00
2018-08-30T10:25:16.641Z,0.00
2018-08-30T10:26:16.468Z,0.00
2018-08-30T10:27:16.379Z,0.00
2018-08-30T10:28:16.279Z,0.00
2018-08-30T10:29:16.187Z,0.00
2018-08-30T10:30:16.095Z,0.00
2018-08-30T10:31:16.003Z,0.00
2018-08-30T10:32:15.954Z,0.00
2018-08-30T10:33:15.800Z,0.00
2018-08-30T10:34:15.710Z,0.00
2018-08-30T10:35:15.618Z,0.00
2018-08-30T10:36:15.510Z,0.00
2018-08-30T10:37:15.421Z,0.00
2018-08-30T10:38:15.330Z,0.00
2018-08-30T10:39:15.223Z,0.00
2018-08-30T10:40:15.138Z,0.00
2018-08-30T10:41:15.037Z,0.00
2018-08-30T10:42:14.938Z,0.00
2018-08-30T10:43:14.848Z,0.00
2018-08-30T10:44:14.757Z,0.00
2018-08-30T10:45:14.658Z,0.00
2018-08-30T10:46:14.570Z,0.00
2018-08-30T10:47:14.467Z,0.00
2018-08-30T10:48:14.371Z,0.00
2018-08-30T10:49:14.372Z,0.00
2018-08-30T10:50:14.180Z,0.00
2018-08-30T10:51:14.089Z,0.00
2018-08-30T10:52:13.980Z,0.00
2018-08-30T10:53:13.890Z,0.00
2018-08-30T10:54:13.804Z,0.00
2018-08-30T10:55:13.698Z,0.00
2018-08-30T10:56:13.676Z,0.00
2018-08-30T10:57:13.509Z,0.00
2018-08-30T10:58:13.413Z,0.00
2018-08-30T10:59:13.323Z,0.00
2018-08-30T11:00:13.225Z,0.00
2018-08-30T11:01:13.134Z,0.00
2018-08-30T11:02:13.027Z,0.00
2018-08-30T11:03:12.938Z,0.00
2018-08-30T11:04:12.849Z,0.00
2018-08-30T11:05:12.738Z,0.00
2018-08-30T11:06:12.654Z,0.00
2018-08-30T11:07:12.552Z,0.00
2018-08-30T11:08:12.455Z,0.00
2018-08-30T11:09:12.365Z,0.00
2018-08-30T11:10:12.260Z,0.00
2018-08-30T11:11:12.167Z,0.00
2018-08-30T11:12:12.070Z,0.00
2018-08-30T11:13:11.981Z,0.00
2018-08-30T11:14:11.885Z,0.00
2018-08-30T11:15:11.789Z,0.00
2018-08-30T11:16:11.699Z,0.00
2018-08-30T11:17:11.593Z,0.00
2018-08-30T11:18:11.499Z,0.00
2018-08-30T11:19:11.409Z,0.00
2018-08-30T11:20:11.303Z,0.00
2018-08-30T11:21:11.223Z,0.00
2018-08-30T11:22:11.114Z,0.00
2018-08-30T11:23:11.023Z,0.00
2018-08-30T11:24:10.926Z,0.00
2018-08-30T11:25:10.824Z,0.00
2018-08-30T11:26:10.734Z,0.00
2018-08-30T11:27:10.678Z,0.00
2018-08-30T11:28:10.541Z,0.00
2018-08-30T11:29:10.439Z,0.00
2018-08-30T11:30:10.344Z,0.00
2018-08-30T11:31:10.252Z,0.00
2018-08-30T11:32:10.154Z,0.00
2018-08-30T11:33:10.063Z,0.00
2018-08-30T11:34:09.962Z,0.00
2018-08-30T11:35:09.874Z,0.00
2018-08-30T11:36:09.775Z,0.29
2018-08-30T11:37:09.672Z,2.50
2018-08-30T11:38:09.582Z,2.79
2018-08-30T11:39:09.481Z,9.25
2018-08-30T11:40:09.386Z,19.93
2018-08-30T11:41:09.352Z,17.53
2018-08-30T11:42:09.192Z,20.61
2018-08-30T11:43:09.113Z,25.81
2018-08-30T11:44:09.015Z,20.70
2018-08-30T11:45:08.917Z,22.24
2018-08-30T11:46:08.817Z,19.06
2018-08-30T11:47:08.725Z,18.58
2018-08-30T11:48:08.627Z,18.87
2018-08-30T11:49:08.536Z,23.00
2018-08-30T11:50:08.443Z,20.31
2018-08-30T11:51:08.359Z,22.25
2018-08-30T11:52:08.253Z,24.66
2018-08-30T11:53:08.154Z,24.18
2018-08-30T11:54:08.075Z,27.64
2018-08-30T11:55:07.969Z,30.73
2018-08-30T11:56:07.928Z,32.36
2018-08-30T11:57:07.768Z,27.64
2018-08-30T11:58:07.679Z,29.07
2018-08-30T11:59:07.584Z,27.62
2018-08-30T12:00:07.485Z,23.30
2018-08-30T12:01:07.401Z,19.72
2018-08-30T12:02:07.299Z,17.61
2018-08-30T12:03:07.221Z,18.48
2018-08-30T12:04:07.113Z,17.71
2018-08-30T12:05:07.019Z,17.52
2018-08-30T12:06:06.917Z,17.42
2018-08-30T12:07:06.827Z,19.83
2018-08-30T12:08:06.900Z,21.66
2018-08-30T12:09:06.629Z,26.58
2018-08-30T12:10:06.576Z,22.73
2018-08-30T12:11:06.582Z,22.72
2018-08-30T12:12:06.344Z,22.24
2018-08-30T12:13:06.254Z,20.79
2018-08-30T12:14:06.162Z,20.70
2018-08-30T12:15:06.072Z,22.83
2018-08-30T12:16:05.972Z,24.37
2018-08-30T12:17:05.881Z,25.80
2018-08-30T12:18:05.790Z,28.22
2018-08-30T12:19:05.688Z,31.98
2018-08-30T12:20:05.592Z,29.57
2018-08-30T12:21:05.502Z,33.25
2018-08-30T12:22:05.397Z,34.98
2018-08-30T12:23:05.306Z,39.70
2018-08-30T12:24:05.219Z,39.89
2018-08-30T12:25:05.115Z,38.06
2018-08-30T12:26:05.022Z,34.50
2018-08-30T12:27:04.937Z,27.83
2018-08-30T12:28:04.844Z,27.74
2018-08-30T12:29:04.783Z,28.31
2018-08-30T12:30:04.688Z,25.04
2018-08-30T12:31:04.640Z,24.35
2018-08-30T12:32:04.460Z,18.87
2018-08-30T12:33:04.370Z,19.35
2018-08-30T12:34:04.350Z,18.48
2018-08-30T12:35:04.328Z,12.51
2018-08-30T12:36:04.289Z,11.74
2018-08-30T12:37:03.999Z,6.35
2018-08-30T12:38:03.935Z,2.01
2018-08-30T12:39:03.801Z,1.15
2018-08-30T12:40:03.822Z,0.00
2018-08-30T12:41:03.635Z,4.23
2018-08-30T12:42:03.567Z,11.16
2018-08-30T12:43:03.724Z,14.15
2018-08-30T12:44:03.328Z,19.45
2018-08-30T12:45:03.278Z,18.87
2018-08-30T12:46:03.190Z,19.64
2018-08-30T12:47:03.102Z,20.50
2018-08-30T12:48:02.950Z,17.80
2018-08-30T12:49:02.916Z,16.27
2018-08-30T12:50:02.824Z,14.83
2018-08-30T12:51:02.766Z,15.01
2018-08-30T12:52:02.645Z,15.97
2018-08-30T12:53:02.572Z,13.28
2018-08-30T12:54:02.517Z,10.58
2018-08-30T12:55:02.457Z,6.93
2018-08-30T12:56:02.264Z,3.08
2018-08-30T12:57:02.207Z,0.00
2018-08-30T12:58:02.016Z,0.00
2018-08-30T12:59:01.998Z,0.00
2018-08-30T13:00:02.070Z,0.00